createdAt,value
2019-02-21T00:01:48.370Z,6.70
2019-02-21T00:04:17.595Z,6.10
2019-02-21T00:06:46.836Z,5.63
2019-02-21T00:09:16.004Z,5.40
2019-02-21T00:11:45.177Z,5.43
2019-02-21T00:14:14.423Z,5.53
2019-02-21T00:16:43.667Z,5.67
2019-02-21T00:19:12.902Z,5.27
2019-02-21T00:21:42.146Z,5.17
2019-02-21T00:24:11.378Z,5.57
2019-02-21T00:26:40.748Z,5.50
2019-02-21T00:29:09.911Z,5.30
2019-02-21T00:31:40.127Z,5.80
2019-02-21T00:34:09.630Z,5.57
2019-02-21T00:36:38.855Z,5.70
2019-02-21T00:39:08.235Z,5.60
2019-02-21T00:41:39.079Z,5.57
2019-02-21T00:44:08.247Z,5.60
2019-02-21T00:46:37.400Z,5.67
2019-02-21T00:49:06.642Z,5.03
2019-02-21T00:51:35.795Z,5.57
2019-02-21T00:54:04.975Z,5.03
2019-02-21T00:56:34.130Z,5.30
2019-02-21T00:59:03.370Z,5.27
2019-02-21T01:01:32.542Z,5.43
2019-02-21T01:04:01.773Z,5.07
2019-02-21T01:06:31.079Z,5.50
2019-02-21T01:09:00.239Z,5.43
2019-02-21T01:11:29.679Z,4.70
2019-02-21T01:13:58.833Z,5.30
2019-02-21T01:16:28.077Z,5.40
2019-02-21T01:18:57.303Z,5.33
2019-02-21T01:21:26.466Z,5.23
2019-02-21T01:23:55.632Z,5.10
2019-02-21T01:26:24.792Z,5.77
2019-02-21T01:28:54.049Z,5.03
2019-02-21T01:31:23.279Z,5.13
2019-02-21T01:33:52.518Z,5.03
2019-02-21T01:36:21.683Z,5.50
2019-02-21T01:38:50.911Z,4.83
2019-02-21T01:41:20.077Z,5.13
2019-02-21T01:43:49.322Z,5.47
2019-02-21T01:46:18.811Z,4.67
2019-02-21T01:48:47.964Z,4.77
2019-02-21T01:51:17.131Z,5.00
2019-02-21T01:53:46.370Z,4.90
2019-02-21T01:56:15.525Z,4.93
2019-02-21T01:58:44.767Z,5.00
2019-02-21T02:01:13.936Z,5.10
2019-02-21T02:03:43.091Z,4.97
2019-02-21T02:06:12.335Z,5.00
2019-02-21T02:08:41.558Z,4.77
2019-02-21T02:11:10.801Z,4.77
2019-02-21T02:13:40.106Z,5.10
2019-02-21T02:16:09.361Z,4.87
2019-02-21T02:18:38.585Z,4.60
2019-02-21T02:21:07.898Z,4.83
2019-02-21T02:23:37.147Z,5.00
2019-02-21T02:26:06.368Z,5.00
2019-02-21T02:28:35.552Z,5.23
2019-02-21T02:31:04.784Z,4.83
2019-02-21T02:33:34.026Z,4.53
2019-02-21T02:36:03.203Z,4.63
2019-02-21T02:38:32.447Z,4.60
2019-02-21T02:41:01.675Z,5.13
2019-02-21T02:43:30.923Z,4.47
2019-02-21T02:46:00.164Z,5.00
2019-02-21T02:48:29.391Z,4.97
2019-02-21T02:50:58.555Z,5.07
2019-02-21T02:53:27.960Z,4.93
2019-02-21T02:55:57.286Z,4.83
2019-02-21T02:58:27.103Z,5.20
2019-02-21T03:00:56.274Z,5.13
2019-02-21T03:03:25.438Z,4.53
2019-02-21T03:05:54.612Z,4.97
2019-02-21T03:08:23.955Z,5.10
2019-02-21T03:10:53.386Z,4.87
2019-02-21T03:13:22.558Z,4.90
2019-02-21T03:15:51.800Z,4.80
2019-02-21T03:18:21.046Z,4.40
2019-02-21T03:20:50.219Z,4.60
2019-02-21T03:23:19.450Z,5.23
2019-02-21T03:25:48.878Z,5.17
2019-02-21T03:28:19.204Z,4.50
2019-02-21T03:30:48.448Z,4.70
2019-02-21T03:33:17.700Z,4.77
2019-02-21T03:35:46.924Z,4.90
2019-02-21T03:38:16.165Z,4.73
2019-02-21T03:40:45.466Z,4.73
2019-02-21T03:43:14.658Z,4.70
2019-02-21T03:45:43.899Z,4.40
2019-02-21T03:48:13.067Z,4.73
2019-02-21T03:50:42.316Z,4.50
2019-02-21T03:53:11.569Z,4.77
2019-02-21T03:55:40.795Z,4.63
2019-02-21T03:58:09.970Z,4.57
2019-02-21T04:00:40.431Z,5.10
2019-02-21T04:03:09.615Z,4.87
2019-02-21T04:05:38.834Z,4.87
2019-02-21T04:08:08.089Z,4.77
2019-02-21T04:10:37.309Z,4.90
2019-02-21T04:13:06.562Z,4.73
2019-02-21T04:15:35.790Z,5.40
2019-02-21T04:18:05.038Z,4.93
2019-02-21T04:20:34.278Z,4.40
2019-02-21T04:23:03.498Z,4.87
2019-02-21T04:25:32.666Z,4.60
2019-02-21T04:28:01.970Z,4.40
2019-02-21T04:30:31.142Z,5.10
2019-02-21T04:33:00.371Z,4.53
2019-02-21T04:35:29.623Z,4.30
2019-02-21T04:37:58.855Z,5.00
2019-02-21T04:40:28.143Z,4.97
2019-02-21T04:42:57.395Z,4.97
2019-02-21T04:45:26.635Z,4.77
2019-02-21T04:47:55.883Z,4.80
2019-02-21T04:50:25.134Z,5.10
2019-02-21T04:52:54.356Z,5.23
2019-02-21T04:55:24.691Z,4.47
2019-02-21T04:57:53.895Z,4.93
2019-02-21T05:00:23.143Z,4.60
2019-02-21T05:02:52.363Z,4.80
2019-02-21T05:05:21.542Z,4.97
2019-02-21T05:07:50.857Z,4.83
2019-02-21T05:10:20.326Z,5.13
2019-02-21T05:12:49.570Z,4.60
2019-02-21T05:15:18.812Z,5.20
2019-02-21T05:17:48.050Z,4.70
2019-02-21T05:20:17.203Z,4.53
2019-02-21T05:22:46.443Z,5.20
2019-02-21T05:25:15.843Z,4.70
2019-02-21T05:27:46.660Z,4.57
2019-02-21T05:30:17.576Z,4.70
2019-02-21T05:33:03.330Z,4.90
2019-02-21T05:35:34.344Z,4.50
2019-02-21T05:38:11.187Z,5.03
2019-02-21T05:40:44.660Z,4.53
2019-02-21T05:43:27.467Z,4.87
2019-02-21T05:45:58.348Z,4.60
2019-02-21T05:48:29.232Z,4.87
2019-02-21T05:51:00.113Z,4.37
2019-02-21T05:53:30.987Z,4.80
2019-02-21T05:56:04.832Z,4.90
2019-02-21T05:58:52.182Z,4.83
2019-02-21T06:01:28.876Z,4.83
2019-02-21T06:04:02.469Z,4.67
2019-02-21T06:06:33.314Z,4.57
2019-02-21T06:09:10.123Z,4.10
2019-02-21T06:11:46.551Z,4.97
2019-02-21T06:14:20.037Z,4.93
2019-02-21T06:16:53.795Z,4.27
2019-02-21T06:19:30.655Z,4.97
2019-02-21T06:22:10.036Z,4.57
2019-02-21T06:24:33.939Z,4.90
2019-02-21T06:27:12.292Z,4.40
2019-02-21T06:29:43.011Z,4.70
2019-02-21T06:32:14.455Z,4.53
2019-02-21T06:34:43.036Z,4.47
2019-02-21T06:37:12.807Z,4.97
2019-02-21T06:39:42.220Z,4.97
2019-02-21T06:42:11.443Z,4.30
2019-02-21T06:44:40.690Z,4.33
2019-02-21T06:47:09.918Z,4.97
2019-02-21T06:49:39.159Z,4.43
2019-02-21T06:52:08.323Z,5.40
2019-02-21T06:54:37.567Z,4.67
2019-02-21T06:57:06.795Z,4.97
2019-02-21T06:59:42.513Z,4.70
2019-02-21T07:02:06.828Z,4.50
2019-02-21T07:04:36.055Z,4.43
2019-02-21T07:07:05.222Z,5.20
2019-02-21T07:09:34.674Z,4.80
2019-02-21T07:12:03.918Z,4.40
2019-02-21T07:14:34.528Z,5.13
2019-02-21T07:17:03.895Z,4.93
2019-02-21T07:19:33.122Z,4.43
2019-02-21T07:22:02.375Z,4.40
2019-02-21T07:24:31.615Z,4.20
2019-02-21T07:27:00.843Z,4.53
2019-02-21T07:29:30.087Z,4.87
2019-02-21T07:31:59.319Z,4.70
2019-02-21T07:34:30.336Z,4.93
2019-02-21T07:36:59.339Z,4.47
2019-02-21T07:39:35.652Z,4.63
2019-02-21T07:41:59.437Z,4.57
2019-02-21T07:44:28.684Z,4.17
2019-02-21T07:46:57.929Z,4.80
2019-02-21T07:49:27.156Z,4.40
2019-02-21T07:51:56.395Z,4.93
2019-02-21T07:54:25.567Z,4.77
2019-02-21T07:56:54.812Z,4.23
2019-02-21T07:59:24.044Z,4.57
2019-02-21T08:01:53.278Z,4.60
2019-02-21T08:04:22.621Z,4.77
2019-02-21T08:06:51.989Z,4.70
2019-02-21T08:09:22.403Z,4.33
2019-02-21T08:11:51.562Z,4.60
2019-02-21T08:14:20.804Z,4.60
2019-02-21T08:16:50.035Z,4.70
2019-02-21T08:19:19.450Z,4.50
2019-02-21T08:21:49.130Z,4.77
2019-02-21T08:24:18.322Z,4.80
2019-02-21T08:26:47.567Z,4.37
2019-02-21T08:29:16.790Z,4.37
2019-02-21T08:31:45.955Z,4.50
2019-02-21T08:34:16.755Z,4.40
2019-02-21T08:36:46.064Z,4.33
2019-02-21T08:39:15.435Z,4.50
2019-02-21T08:41:44.603Z,4.27
2019-02-21T08:44:13.774Z,4.50
2019-02-21T08:46:42.995Z,4.27
2019-02-21T08:49:12.266Z,4.70
2019-02-21T08:51:41.466Z,4.47
2019-02-21T08:54:11.513Z,4.63
2019-02-21T08:56:40.776Z,4.50
2019-02-21T08:59:10.025Z,4.70
2019-02-21T09:01:39.387Z,4.50
2019-02-21T09:04:14.842Z,4.83
2019-02-21T09:06:39.499Z,4.47
2019-02-21T09:09:08.731Z,4.93
2019-02-21T09:11:38.558Z,4.43
2019-02-21T09:14:07.779Z,4.90
2019-02-21T09:16:37.267Z,4.57
2019-02-21T09:19:06.514Z,4.80
2019-02-21T09:21:35.836Z,4.57
2019-02-21T09:24:05.191Z,4.40
2019-02-21T09:26:35.615Z,5.50
2019-02-21T09:29:04.787Z,4.73
2019-02-21T09:31:33.939Z,4.60
2019-02-21T09:34:03.350Z,4.60
2019-02-21T09:36:32.504Z,4.40
2019-02-21T09:39:01.743Z,4.73
2019-02-21T09:41:32.514Z,4.63
2019-02-21T09:44:01.680Z,4.90
2019-02-21T09:46:32.104Z,5.00
2019-02-21T09:49:02.987Z,4.30
2019-02-21T09:51:32.311Z,4.90
2019-02-21T09:54:01.555Z,4.80
2019-02-21T09:56:30.998Z,4.97
2019-02-21T09:59:00.311Z,5.20
2019-02-21T10:01:29.539Z,4.87
2019-02-21T10:03:59.987Z,4.90
2019-02-21T10:06:29.223Z,5.53
2019-02-21T10:08:58.534Z,4.80
2019-02-21T10:11:27.706Z,4.93
2019-02-21T10:13:56.951Z,5.60
2019-02-21T10:16:26.123Z,5.30
2019-02-21T10:18:55.344Z,5.67
2019-02-21T10:21:24.711Z,4.97
2019-02-21T10:23:56.596Z,5.47
2019-02-21T10:26:25.033Z,5.00
2019-02-21T10:28:54.263Z,5.57
2019-02-21T10:31:23.432Z,5.30
2019-02-21T10:33:52.598Z,5.60
2019-02-21T10:36:21.780Z,5.00
2019-02-21T10:38:51.199Z,5.30
2019-02-21T10:41:20.446Z,5.00
2019-02-21T10:43:49.946Z,5.50
2019-02-21T10:46:19.100Z,5.87
2019-02-21T10:48:48.267Z,5.47
2019-02-21T10:51:17.502Z,5.53
2019-02-21T10:53:46.731Z,5.20
2019-02-21T10:56:16.011Z,4.80
2019-02-21T10:58:45.559Z,5.80
2019-02-21T11:01:14.783Z,5.40
2019-02-21T11:03:43.951Z,5.33
2019-02-21T11:06:13.130Z,5.40
2019-02-21T11:08:42.366Z,5.00
2019-02-21T11:11:11.535Z,5.13
2019-02-21T11:13:40.690Z,5.17
2019-02-21T11:16:09.936Z,5.27
2019-02-21T11:18:39.158Z,5.07
2019-02-21T11:21:08.323Z,5.50
2019-02-21T11:23:37.567Z,5.00
2019-02-21T11:26:06.741Z,5.07
2019-02-21T11:28:35.983Z,5.27
2019-02-21T11:31:05.322Z,6.13
2019-02-21T11:33:34.567Z,5.57
2019-02-21T11:36:03.720Z,5.50
2019-02-21T11:38:32.962Z,4.93
2019-02-21T11:41:02.190Z,5.80
2019-02-21T11:43:31.371Z,5.47
2019-02-21T11:46:00.526Z,6.17
2019-02-21T11:48:29.767Z,5.80
2019-02-21T11:50:58.935Z,5.97
2019-02-21T11:53:28.170Z,5.47
2019-02-21T11:55:57.337Z,5.57
2019-02-21T11:58:26.569Z,5.73
2019-02-21T12:00:55.816Z,5.40
2019-02-21T12:03:25.042Z,5.37
2019-02-21T12:05:54.283Z,4.70
2019-02-21T12:08:23.527Z,5.10
2019-02-21T12:10:52.761Z,5.47
2019-02-21T12:13:22.003Z,5.60
2019-02-21T12:15:51.427Z,5.70
2019-02-21T12:18:20.669Z,4.90
2019-02-21T12:20:49.912Z,5.70
2019-02-21T12:23:19.157Z,5.50
2019-02-21T12:25:48.322Z,5.20
2019-02-21T12:28:17.491Z,5.83
2019-02-21T12:30:46.734Z,5.63
2019-02-21T12:33:15.962Z,5.83
2019-02-21T12:35:45.132Z,5.80
2019-02-21T12:38:14.363Z,5.47
2019-02-21T12:40:43.603Z,5.40
2019-02-21T12:43:12.834Z,5.70
2019-02-21T12:45:42.074Z,4.60
2019-02-21T12:48:11.314Z,5.67
2019-02-21T12:50:44.382Z,5.53
2019-02-21T12:53:11.639Z,5.67
2019-02-21T12:55:40.866Z,5.20
2019-02-21T12:58:10.037Z,5.33
2019-02-21T13:00:39.283Z,5.73
2019-02-21T13:03:08.586Z,5.53
2019-02-21T13:05:41.051Z,5.67
2019-02-21T13:08:08.871Z,5.50
2019-02-21T13:10:38.056Z,5.33
2019-02-21T13:13:07.381Z,5.13
2019-02-21T13:15:36.546Z,4.90
2019-02-21T13:18:15.235Z,5.43
2019-02-21T13:20:36.582Z,5.53
2019-02-21T13:23:05.819Z,4.80
2019-02-21T13:25:34.971Z,4.80
2019-02-21T13:28:04.139Z,5.00
2019-02-21T13:30:33.377Z,5.10
2019-02-21T13:33:02.619Z,5.03
2019-02-21T13:35:31.784Z,5.53
2019-02-21T13:38:01.014Z,5.00
2019-02-21T13:40:30.323Z,5.00
2019-02-21T13:42:59.475Z,4.70
2019-02-21T13:45:28.642Z,4.93
2019-02-21T13:47:57.811Z,5.00
2019-02-21T13:50:26.975Z,5.40
2019-02-21T13:52:56.982Z,5.27
2019-02-21T13:55:26.261Z,5.20
2019-02-21T13:57:55.499Z,5.37
2019-02-21T14:00:25.087Z,4.90
2019-02-21T14:02:54.333Z,5.13
2019-02-21T14:05:23.555Z,4.90
2019-02-21T14:07:52.723Z,5.00
2019-02-21T14:10:22.051Z,4.93
2019-02-21T14:12:51.290Z,4.77
2019-02-21T14:15:30.493Z,5.27
2019-02-21T14:17:59.749Z,5.30
2019-02-21T14:20:28.971Z,4.90
2019-02-21T14:22:58.125Z,4.63
2019-02-21T14:25:28.315Z,4.80
2019-02-21T14:27:58.240Z,5.03
2019-02-21T14:30:27.483Z,5.60
2019-02-21T14:32:56.732Z,5.30
2019-02-21T14:35:25.964Z,4.50
2019-02-21T14:37:55.225Z,4.97
2019-02-21T14:40:24.439Z,5.00
2019-02-21T14:42:54.751Z,5.03
2019-02-21T14:45:25.343Z,4.83
2019-02-21T14:47:54.592Z,4.67
2019-02-21T14:50:23.840Z,5.00
2019-02-21T14:52:53.085Z,5.47
2019-02-21T14:55:22.326Z,5.50
2019-02-21T14:57:51.573Z,5.00
2019-02-21T15:00:26.055Z,4.70
2019-02-21T15:02:57.675Z,4.67
2019-02-21T15:05:26.091Z,4.87
2019-02-21T15:07:55.335Z,5.13
2019-02-21T15:10:24.490Z,4.93
2019-02-21T15:12:53.730Z,4.97
2019-02-21T15:15:27.415Z,4.40
2019-02-21T15:18:06.916Z,4.93
2019-02-21T15:20:36.404Z,4.47
2019-02-21T15:22:59.343Z,4.80
2019-02-21T15:25:28.507Z,4.90
2019-02-21T15:27:57.664Z,4.53
2019-02-21T15:30:26.977Z,4.27
2019-02-21T15:32:56.207Z,5.57
2019-02-21T15:35:26.628Z,5.27
2019-02-21T15:37:55.857Z,4.60
2019-02-21T15:40:25.100Z,4.80
2019-02-21T15:42:55.511Z,4.90
2019-02-21T15:45:29.075Z,4.60
2019-02-21T15:47:58.390Z,4.87
2019-02-21T15:50:27.851Z,4.90
2019-02-21T15:52:57.637Z,4.40
2019-02-21T15:55:27.051Z,5.20
2019-02-21T15:58:04.084Z,4.67
2019-02-21T16:00:27.427Z,4.43
2019-02-21T16:02:56.722Z,5.10
2019-02-21T16:05:25.962Z,4.73
2019-02-21T16:07:55.115Z,4.87
2019-02-21T16:10:27.962Z,4.50
2019-02-21T16:12:57.669Z,4.57
2019-02-21T16:15:27.251Z,4.60
2019-02-21T16:17:56.481Z,4.67
2019-02-21T16:20:25.730Z,4.73
2019-02-21T16:22:55.035Z,5.20
2019-02-21T16:25:29.235Z,4.73
2019-02-21T16:27:58.473Z,5.00
2019-02-21T16:30:27.722Z,4.63
2019-02-21T16:32:56.891Z,4.50
2019-02-21T16:35:27.416Z,4.83
2019-02-21T16:37:57.062Z,4.73
2019-02-21T16:40:26.294Z,4.80
2019-02-21T16:42:55.601Z,4.73
2019-02-21T16:45:24.854Z,4.77
2019-02-21T16:47:54.020Z,4.30
2019-02-21T16:50:29.729Z,4.70
2019-02-21T16:52:54.427Z,4.57
2019-02-21T16:55:26.643Z,4.57
2019-02-21T16:57:55.814Z,4.50
2019-02-21T17:00:25.431Z,5.00
2019-02-21T17:02:54.767Z,4.80
2019-02-21T17:05:23.922Z,4.80
2019-02-21T17:07:53.104Z,4.43
2019-02-21T17:10:22.319Z,4.50
2019-02-21T17:12:51.623Z,4.60
2019-02-21T17:15:20.794Z,4.33
2019-02-21T17:17:50.034Z,4.57
2019-02-21T17:20:20.949Z,4.40
2019-02-21T17:22:50.191Z,4.83
2019-02-21T17:25:19.351Z,4.47
2019-02-21T17:27:50.218Z,4.70
2019-02-21T17:30:19.642Z,4.20
2019-02-21T17:32:48.885Z,4.43
2019-02-21T17:35:19.187Z,4.50
2019-02-21T17:37:48.358Z,4.80
2019-02-21T17:40:20.187Z,4.73
2019-02-21T17:42:50.690Z,4.70
2019-02-21T17:45:20.005Z,5.00
2019-02-21T17:47:49.308Z,4.30
2019-02-21T17:50:19.514Z,5.03
2019-02-21T17:52:48.679Z,5.00
2019-02-21T17:55:18.471Z,5.17
2019-02-21T17:57:47.720Z,5.10
2019-02-21T18:00:26.721Z,5.07
2019-02-21T18:02:55.968Z,5.60
2019-02-21T18:05:25.188Z,4.37
2019-02-21T18:07:54.430Z,5.00
2019-02-21T18:10:23.583Z,4.87
2019-02-21T18:12:52.826Z,4.63
2019-02-21T18:15:22.000Z,5.10
2019-02-21T18:17:51.303Z,4.83
2019-02-21T18:20:20.543Z,5.30
2019-02-21T18:22:49.814Z,4.97
2019-02-21T18:25:24.958Z,4.97
2019-02-21T18:27:54.182Z,5.10
2019-02-21T18:30:23.498Z,5.60
2019-02-21T18:32:52.952Z,5.43
2019-02-21T18:35:22.178Z,4.70
2019-02-21T18:37:51.427Z,5.40
2019-02-21T18:40:22.790Z,5.00
2019-02-21T18:42:52.036Z,4.87
2019-02-21T18:45:21.272Z,5.40
2019-02-21T18:47:50.580Z,4.90
2019-02-21T18:50:19.827Z,5.33
2019-02-21T18:52:48.983Z,5.00
2019-02-21T18:55:18.151Z,5.40
2019-02-21T18:57:47.319Z,5.17
2019-02-21T19:00:22.222Z,4.63
2019-02-21T19:02:51.522Z,5.30
2019-02-21T19:05:21.614Z,5.63
2019-02-21T19:07:58.305Z,5.23
2019-02-21T19:10:22.725Z,5.40
2019-02-21T19:12:51.968Z,5.47
2019-02-21T19:15:22.254Z,5.17
2019-02-21T19:17:52.174Z,5.27
2019-02-21T19:20:22.759Z,4.97
2019-02-21T19:22:52.009Z,4.97
2019-02-21T19:25:21.253Z,5.10
2019-02-21T19:27:50.489Z,4.93
2019-02-21T19:30:25.939Z,5.10
2019-02-21T19:32:55.174Z,4.60
2019-02-21T19:35:24.514Z,5.77
2019-02-21T19:37:53.694Z,4.97
2019-02-21T19:40:22.937Z,5.20
2019-02-21T19:42:52.284Z,5.20
2019-02-21T19:45:24.385Z,5.00
2019-02-21T19:47:55.236Z,5.67
2019-02-21T19:50:24.759Z,5.03
2019-02-21T19:52:54.178Z,5.00
2019-02-21T19:55:23.407Z,5.27
2019-02-21T19:57:52.578Z,5.30
2019-02-21T20:00:25.898Z,5.40
2019-02-21T20:02:55.510Z,4.80
2019-02-21T20:05:24.895Z,4.40
2019-02-21T20:07:55.466Z,5.30
2019-02-21T20:10:26.191Z,5.57
2019-02-21T20:12:57.071Z,4.67
2019-02-21T20:15:26.223Z,4.77
2019-02-21T20:17:55.467Z,4.63
2019-02-21T20:20:27.006Z,4.67
2019-02-21T20:22:57.714Z,4.83
2019-02-21T20:25:26.954Z,5.00
2019-02-21T20:27:56.120Z,5.10
2019-02-21T20:30:26.134Z,4.73
2019-02-21T20:32:55.446Z,5.07
2019-02-21T20:35:24.711Z,4.40
2019-02-21T20:37:54.019Z,5.47
2019-02-21T20:40:23.387Z,4.67
2019-02-21T20:42:52.694Z,4.33
2019-02-21T20:45:24.628Z,4.30
2019-02-21T20:47:52.849Z,4.97
2019-02-21T20:50:22.135Z,4.57
2019-02-21T20:52:51.378Z,4.67
2019-02-21T20:55:20.702Z,4.20
2019-02-21T20:57:50.007Z,4.73
2019-02-21T21:00:19.849Z,4.27
2019-02-21T21:02:49.358Z,4.53
2019-02-21T21:05:18.787Z,4.20
2019-02-21T21:07:48.147Z,4.77
2019-02-21T21:10:17.553Z,4.30
2019-02-21T21:12:46.795Z,4.90
2019-02-21T21:15:15.957Z,4.23
2019-02-21T21:17:45.195Z,4.47
2019-02-21T21:20:17.389Z,4.03
2019-02-21T21:22:47.025Z,3.90
2019-02-21T21:25:17.721Z,4.10
2019-02-21T21:27:46.962Z,4.00
2019-02-21T21:30:17.537Z,3.90
2019-02-21T21:32:46.846Z,4.20
2019-02-21T21:35:16.010Z,4.33
2019-02-21T21:37:45.236Z,3.80
2019-02-21T21:40:16.878Z,3.90
2019-02-21T21:42:46.177Z,4.00
2019-02-21T21:45:17.358Z,4.40
2019-02-21T21:47:46.512Z,3.90
2019-02-21T21:50:18.352Z,4.13
2019-02-21T21:52:47.955Z,3.83
2019-02-21T21:55:17.201Z,3.70
2019-02-21T21:57:46.443Z,3.93
2019-02-21T22:00:22.067Z,3.80
2019-02-21T22:02:51.239Z,3.70
2019-02-21T22:05:20.480Z,3.93
2019-02-21T22:07:49.861Z,4.00
2019-02-21T22:10:19.134Z,3.67
2019-02-21T22:12:48.408Z,3.93
2019-02-21T22:15:19.374Z,3.73
2019-02-21T22:17:48.556Z,3.83
2019-02-21T22:20:17.778Z,3.90
2019-02-21T22:22:47.021Z,4.13
2019-02-21T22:25:16.654Z,4.00
2019-02-21T22:27:45.895Z,4.00
2019-02-21T22:30:19.421Z,3.90
2019-02-21T22:32:48.661Z,3.90
2019-02-21T22:35:17.904Z,3.73
2019-02-21T22:37:47.202Z,4.23
2019-02-21T22:40:20.679Z,4.17
2019-02-21T22:42:49.924Z,3.77
2019-02-21T22:45:19.159Z,4.20
2019-02-21T22:47:48.391Z,3.53
2019-02-21T22:50:19.836Z,4.40
2019-02-21T22:52:49.083Z,4.10
2019-02-21T22:55:18.447Z,3.83
2019-02-21T22:57:47.670Z,3.70
2019-02-21T23:00:36.510Z,3.83
2019-02-21T23:03:10.502Z,3.70
2019-02-21T23:06:08.722Z,3.67
2019-02-21T23:08:45.126Z,3.87
2019-02-21T23:11:14.353Z,3.77
2019-02-21T23:13:43.578Z,3.60
2019-02-21T23:16:12.734Z,3.67
2019-02-21T23:18:41.974Z,3.80
2019-02-21T23:21:11.200Z,3.57
2019-02-21T23:23:40.442Z,3.13
2019-02-21T23:26:09.667Z,3.97
2019-02-21T23:28:38.908Z,3.80
2019-02-21T23:31:08.151Z,3.87
2019-02-21T23:33:44.779Z,3.70
2019-02-21T23:36:14.019Z,3.93
2019-02-21T23:38:43.252Z,3.43
2019-02-21T23:41:12.490Z,3.93
2019-02-21T23:43:41.722Z,3.43
2019-02-21T23:46:10.890Z,3.47
2019-02-21T23:48:40.131Z,3.80
2019-02-21T23:51:09.421Z,3.70
2019-02-21T23:53:38.659Z,3.57
2019-02-21T23:56:07.890Z,3.53
2019-02-21T23:58:37.130Z,3.30
